Time;durP1;ratioP1;P1;durP2;ratioP2;P2;SDS_P1;SDS_P2;PMS_P1;PMS_P2;Temp;Humidity;BMP_temperature;BMP_pressure;BME280_temperature;BME280_humidity;BME280_pressure;Samples;Min_cycle;Max_cycle;Signal;HPM_P1;HPM_P2
2023/12/30 00:00:10;;;;;;;30.67;6.53;;;8.30;99.90;;;7.54;100.00;101278.84;4205739;28;20020;-71
2023/12/30 00:02:11;;;;;;;18.08;4.30;;;8.30;99.90;;;7.56;100.00;101276.94;4206846;28;20020;-72
2023/12/30 00:04:13;;;;;;;30.90;5.20;;;8.30;99.90;;;7.63;100.00;101279.91;4213623;28;20471;-72
2023/12/30 00:06:15;;;;;;;27.27;4.88;;;8.40;99.90;;;7.70;100.00;101278.47;4218307;28;20031;-72
2023/12/30 00:08:16;;;;;;;30.85;5.72;;;8.40;99.90;;;7.67;100.00;101278.72;4218350;28;20028;-72
2023/12/30 00:10:17;;;;;;;27.52;6.90;;;8.40;99.90;;;7.64;100.00;101274.53;4218524;28;20046;-72
2023/12/30 00:12:18;;;;;;;30.15;5.55;;;8.40;99.90;;;7.65;100.00;101270.94;4207870;28;20037;-72
2023/12/30 00:14:18;;;;;;;35.17;5.88;;;8.40;99.90;;;7.65;100.00;101265.69;4217077;28;20047;-72
2023/12/30 00:16:19;;;;;;;27.63;5.85;;;8.40;99.90;;;7.64;100.00;101271.09;4201499;28;20044;-72
2023/12/30 00:18:20;;;;;;;30.10;5.10;;;8.40;99.90;;;7.68;100.00;101264.59;4201762;28;20043;-72
2023/12/30 00:20:22;;;;;;;28.42;5.18;;;8.40;99.90;;;7.71;100.00;101264.34;4201699;28;20502;-72
2023/12/30 00:22:23;;;;;;;29.77;5.53;;;8.40;99.90;;;7.65;100.00;101260.44;4204452;28;20023;-72
2023/12/30 00:24:23;;;;;;;32.05;6.10;;;8.40;99.90;;;7.73;100.00;101262.47;4201424;28;20037;-72
2023/12/30 00:26:26;;;;;;;25.80;4.38;;;8.40;99.90;;;7.75;100.00;101261.38;4201825;28;20024;-72
2023/12/30 00:28:27;;;;;;;36.70;6.82;;;8.50;99.90;;;7.78;100.00;101266.38;4204060;28;20027;-73
2023/12/30 00:30:28;;;;;;;25.35;4.60;;;8.50;99.90;;;7.77;100.00;101264.69;4201610;28;20032;-72
2023/12/30 00:32:29;;;;;;;24.95;4.95;;;8.50;99.90;;;7.72;100.00;101261.63;4216853;28;20412;-72
2023/12/30 00:34:33;;;;;;;25.83;4.47;;;8.50;99.90;;;7.70;100.00;101263.53;4218443;28;20090;-72
2023/12/30 00:36:34;;;;;;;37.20;5.35;;;8.50;99.90;;;7.73;100.00;101260.66;4218861;28;20028;-72
2023/12/30 00:38:35;;;;;;;29.27;4.95;;;8.50;99.90;;;7.74;100.00;101266.72;4221468;28;20054;-72
2023/12/30 00:40:35;;;;;;;22.20;4.63;;;8.50;99.90;;;7.69;100.00;101255.78;4221494;28;20023;-72
2023/12/30 00:42:36;;;;;;;22.30;4.57;;;8.50;99.90;;;7.70;100.00;101260.91;4214152;28;20021;-72
2023/12/30 00:44:37;;;;;;;27.30;5.10;;;8.40;99.90;;;7.70;100.00;101254.84;4205022;28;20017;-72
2023/12/30 00:46:38;;;;;;;24.45;4.38;;;8.50;99.90;;;7.70;100.00;101260.91;4216691;28;20024;-72
2023/12/30 00:48:39;;;;;;;29.67;4.93;;;8.50;99.90;;;7.68;100.00;101257.56;4204692;28;20039;-72
2023/12/30 00:50:40;;;;;;;26.80;4.20;;;8.40;99.90;;;7.67;100.00;101257.69;4205960;28;20025;-72
2023/12/30 00:52:40;;;;;;;28.52;4.10;;;8.40;99.90;;;7.68;100.00;101254.94;4211135;28;20028;-72
2023/12/30 00:54:41;;;;;;;22.45;4.40;;;8.40;99.90;;;7.67;100.00;101250.66;4204353;28;20025;-72
2023/12/30 00:56:42;;;;;;;32.35;5.80;;;8.40;99.90;;;7.69;100.00;101251.38;4204496;28;20016;-72
2023/12/30 00:58:43;;;;;;;20.30;4.63;;;8.40;99.90;;;7.73;100.00;101246.69;4204828;28;20027;-72
2023/12/30 01:00:44;;;;;;;26.17;5.22;;;8.40;99.90;;;7.79;100.00;101247.00;4206164;28;20025;-72
2023/12/30 01:02:45;;;;;;;27.85;4.78;;;8.50;99.90;;;7.79;100.00;101236.50;4209495;28;20035;-72
2023/12/30 01:04:46;;;;;;;25.98;4.43;;;8.50;99.90;;;7.80;100.00;101237.34;4220422;28;20472;-72
2023/12/30 01:06:46;;;;;;;30.08;5.18;;;8.50;99.90;;;7.80;100.00;101242.59;4214533;28;20472;-72
2023/12/30 01:08:47;;;;;;;27.52;4.80;;;8.50;99.90;;;7.82;100.00;101234.59;4204244;28;20430;-72
2023/12/30 01:10:48;;;;;;;28.05;4.78;;;8.50;99.90;;;7.74;100.00;101232.59;4205049;28;20027;-72
2023/12/30 01:12:49;;;;;;;41.33;6.57;;;8.50;99.90;;;7.76;100.00;101231.50;4204344;28;20020;-71
2023/12/30 01:14:50;;;;;;;28.70;5.25;;;8.50;99.90;;;7.75;100.00;101229.03;4204180;28;20037;-72
2023/12/30 01:16:51;;;;;;;26.30;5.10;;;8.50;99.90;;;7.71;100.00;101223.19;4211991;28;20474;-72
2023/12/30 01:18:51;;;;;;;26.90;5.30;;;8.50;99.90;;;7.77;100.00;101227.94;4204363;28;20028;-72
2023/12/30 01:20:53;;;;;;;20.50;4.50;;;8.50;99.90;;;7.76;100.00;101226.25;4204670;28;20021;-72
2023/12/30 01:22:54;;;;;;;22.00;5.30;;;8.50;99.90;;;7.77;100.00;101220.06;4203898;28;20056;-72
2023/12/30 01:24:55;;;;;;;23.45;4.32;;;8.50;99.90;;;7.76;100.00;101221.00;4211852;28;20020;-72
2023/12/30 01:26:55;;;;;;;30.45;4.40;;;8.50;99.90;;;7.76;100.00;101221.00;4204148;28;20399;-72
2023/12/30 01:28:56;;;;;;;34.10;7.50;;;8.50;99.90;;;7.80;100.00;101219.78;4204019;28;20399;-72
2023/12/30 01:30:57;;;;;;;23.08;5.45;;;8.50;99.90;;;7.82;100.00;101208.34;4215235;28;20503;-72
2023/12/30 01:32:58;;;;;;;31.15;5.82;;;8.50;99.90;;;7.78;100.00;101213.84;4212502;28;20025;-72
2023/12/30 01:34:59;;;;;;;19.58;4.68;;;8.50;99.90;;;7.74;100.00;101212.41;4204133;28;20024;-71
2023/12/30 01:36:59;;;;;;;27.80;4.95;;;8.50;99.90;;;7.74;100.00;101212.41;4204016;28;20024;-72
2023/12/30 01:39:00;;;;;;;19.60;5.03;;;8.50;99.90;;;7.77;100.00;101201.66;4207172;28;20028;-72
2023/12/30 01:41:01;;;;;;;27.25;5.43;;;8.50;99.90;;;7.73;100.00;101213.41;4210635;28;20016;-72
2023/12/30 01:43:04;;;;;;;22.05;4.15;;;8.50;99.90;;;7.70;100.00;101203.16;4209349;28;20503;-72
2023/12/30 01:45:05;;;;;;;20.25;4.53;;;8.50;99.90;;;7.69;100.00;101211.97;4217227;28;20024;-72
2023/12/30 01:47:06;;;;;;;23.48;4.65;;;8.40;99.90;;;7.64;100.00;101192.31;4203664;28;20062;-72
2023/12/30 01:49:07;;;;;;;23.35;4.28;;;8.40;99.90;;;7.64;100.00;101202.81;4203888;28;20078;-72
2023/12/30 01:51:08;;;;;;;19.15;3.83;;;8.40;99.90;;;7.62;100.00;101209.97;4214217;28;20036;-72
2023/12/30 01:53:10;;;;;;;24.13;4.05;;;8.40;99.90;;;7.63;100.00;101199.34;4205192;28;20024;-72
2023/12/30 01:55:11;;;;;;;19.20;4.28;;;8.40;99.90;;;7.66;100.00;101198.25;4202443;28;20036;-71
2023/12/30 01:57:12;;;;;;;24.45;4.75;;;8.40;99.90;;;7.66;100.00;101201.72;4210209;28;20586;-72
2023/12/30 01:59:16;;;;;;;19.33;3.88;;;8.40;99.90;;;7.62;100.00;101202.09;4209304;28;20572;-72
2023/12/30 02:01:18;;;;;;;28.08;4.38;;;8.40;99.90;;;7.61;100.00;101214.41;4217236;28;20451;-72
2023/12/30 02:03:20;;;;;;;27.40;4.55;;;8.40;99.90;;;7.59;100.00;101213.69;4220358;28;20024;-72
2023/12/30 02:05:21;;;;;;;24.13;4.25;;;8.40;99.90;;;7.58;100.00;101216.44;4219201;28;20039;-72
2023/12/30 02:07:22;;;;;;;27.70;4.82;;;8.30;99.90;;;7.59;100.00;101200.56;4220223;28;20442;-72
2023/12/30 02:09:23;;;;;;;29.58;5.47;;;8.30;99.90;;;7.60;100.00;101206.63;4219925;28;20118;-72
2023/12/30 02:11:24;;;;;;;28.70;5.15;;;8.30;99.90;;;7.54;100.00;101200.09;4214762;28;20020;-72
2023/12/30 02:13:25;;;;;;;24.83;5.60;;;8.30;99.90;;;7.59;100.00;101205.81;4210783;28;20035;-72
2023/12/30 02:15:26;;;;;;;19.45;4.50;;;8.30;99.90;;;7.52;100.00;101207.28;4220133;28;20048;-72
2023/12/30 02:17:26;;;;;;;21.38;4.72;;;8.30;99.90;;;7.45;100.00;101206.09;4218851;28;20596;-72
2023/12/30 02:19:27;;;;;;;16.55;4.10;;;8.20;99.90;;;7.42;100.00;101214.22;4220134;28;20032;-72
2023/12/30 02:21:28;;;;;;;19.20;3.97;;;8.10;99.90;;;7.34;100.00;101205.31;4213988;28;20074;-72
2023/12/30 02:23:29;;;;;;;16.67;3.22;;;8.10;99.90;;;7.31;100.00;101208.19;4203106;28;20484;-72
2023/12/30 02:25:30;;;;;;;20.02;4.03;;;8.00;99.90;;;7.24;100.00;101208.66;4203482;28;20484;-72
2023/12/30 02:27:31;;;;;;;10.98;3.20;;;8.00;99.90;;;7.20;100.00;101203.78;4203097;28;20028;-72
2023/12/30 02:29:32;;;;;;;16.65;3.55;;;7.90;99.90;;;7.19;100.00;101208.22;4203222;28;20063;-72
2023/12/30 02:31:35;;;;;;;22.58;3.60;;;7.90;99.90;;;7.14;100.00;101209.50;4210069;28;20085;-72
2023/12/30 02:33:36;;;;;;;21.37;4.90;;;7.90;99.90;;;7.10;100.00;101203.72;4206353;28;20082;-72
2023/12/30 02:35:37;;;;;;;10.40;2.90;;;7.80;99.90;;;7.08;100.00;101205.59;4201530;28;20291;-72
2023/12/30 02:37:37;;;;;;;19.38;3.83;;;7.80;99.90;;;7.01;100.00;101206.22;4203154;28;20078;-72
2023/12/30 02:39:38;;;;;;;15.73;4.45;;;7.80;99.90;;;7.00;100.00;101208.00;4211224;28;20027;-72
2023/12/30 02:41:40;;;;;;;15.20;4.03;;;7.70;99.90;;;6.94;100.00;101211.13;4210588;28;20027;-72
2023/12/30 02:44:01;;;;;;;18.92;4.00;;;7.70;99.90;;;6.93;100.00;101211.25;4202150;28;20021;-72
2023/12/30 02:46:02;;;;;;;13.07;3.45;;;7.60;99.90;;;6.91;100.00;101213.13;4218599;28;20032;-72
2023/12/30 02:48:04;;;;;;;12.30;3.70;;;7.60;99.90;;;6.93;100.00;101213.88;4203036;28;20024;-72
2023/12/30 02:50:06;;;;;;;13.48;4.03;;;7.60;99.90;;;6.87;100.00;101206.47;4202871;28;20056;-72
2023/12/30 02:52:06;;;;;;;17.52;3.80;;;7.60;99.90;;;6.87;100.00;101209.09;4208592;28;20095;-72
2023/12/30 02:54:07;;;;;;;25.67;5.22;;;7.50;99.90;;;6.84;100.00;101210.16;4202589;28;20028;-72
2023/12/30 02:56:22;;;;;;;25.38;5.05;;;7.60;99.90;;;6.88;100.00;101210.75;4202672;28;20036;-72
2023/12/30 02:58:23;;;;;;;18.30;4.45;;;7.60;99.90;;;6.93;100.00;101216.50;4206468;28;20072;-72
2023/12/30 03:00:24;;;;;;;14.18;4.28;;;7.60;99.90;;;6.96;100.00;101216.25;4218755;28;20051;-72
2023/12/30 03:02:25;;;;;;;24.65;4.47;;;7.70;99.90;;;6.99;100.00;101216.81;4208138;28;20024;-72
2023/12/30 03:04:26;;;;;;;18.52;4.80;;;7.70;99.90;;;6.99;100.00;101211.56;4215636;28;20016;-72
2023/12/30 03:06:27;;;;;;;16.27;4.68;;;7.70;99.90;;;6.98;100.00;101212.53;4217925;28;20031;-72
2023/12/30 03:08:28;;;;;;;18.88;4.65;;;7.70;99.90;;;6.98;100.00;101209.09;4219394;28;20028;-72
2023/12/30 03:10:29;;;;;;;19.15;5.43;;;7.70;99.90;;;7.03;100.00;101206.91;4219393;28;20046;-71
2023/12/30 03:12:29;;;;;;;20.75;5.30;;;7.70;99.90;;;7.10;100.00;101195.84;4206073;28;20032;-72
2023/12/30 03:14:30;;;;;;;16.13;5.03;;;7.80;99.90;;;7.20;100.00;101209.88;4217535;28;20035;-72
2023/12/30 03:16:32;;;;;;;33.38;6.60;;;7.90;99.90;;;7.30;100.00;101209.97;4202405;28;20420;-72
2023/12/30 03:18:33;;;;;;;36.88;8.05;;;8.00;99.90;;;7.39;100.00;101205.75;4202397;28;20024;-72
2023/12/30 03:20:34;;;;;;;32.97;5.65;;;8.00;99.90;;;7.49;100.00;101202.28;4214062;28;20020;-72
2023/12/30 03:22:34;;;;;;;13.07;5.25;;;8.20;99.90;;;7.53;100.00;101202.84;4214226;28;20545;-72
2023/12/30 03:24:35;;;;;;;20.00;5.53;;;8.20;99.90;;;7.53;100.00;101198.44;4200961;28;20541;-72
2023/12/30 03:26:36;;;;;;;15.93;4.60;;;8.20;99.90;;;7.49;100.00;101188.31;4200962;28;20034;-72
2023/12/30 03:28:37;;;;;;;24.50;4.78;;;8.20;99.90;;;7.47;100.00;101190.22;4214099;28;20099;-72
2023/12/30 03:30:38;;;;;;;9.77;4.40;;;8.20;99.90;;;7.40;100.00;101182.03;4201943;28;20025;-72
2023/12/30 03:32:39;;;;;;;15.63;4.68;;;8.10;99.90;;;7.35;100.00;101183.38;4216074;28;20119;-72
2023/12/30 03:34:40;;;;;;;13.40;4.40;;;8.10;99.90;;;7.35;100.00;101181.56;4208492;28;20467;-71
2023/12/30 03:36:41;;;;;;;14.27;4.57;;;8.10;99.90;;;7.40;100.00;101178.56;4214708;28;20032;-71
2023/12/30 03:38:41;;;;;;;19.63;5.10;;;8.10;99.90;;;7.37;100.00;101177.03;4202520;28;20028;-72
2023/12/30 03:40:42;;;;;;;12.52;4.88;;;8.10;99.90;;;7.36;100.00;101183.22;4200818;28;20024;-72
2023/12/30 03:42:43;;;;;;;8.77;4.75;;;8.10;99.90;;;7.38;100.00;101177.88;4208525;28;20031;-72
2023/12/30 03:44:44;;;;;;;12.57;5.03;;;8.10;99.90;;;7.43;100.00;101179.16;4202017;28;20050;-72
2023/12/30 03:46:45;;;;;;;22.45;5.10;;;8.10;99.90;;;7.51;100.00;101178.53;4201849;28;20024;-72
2023/12/30 03:48:46;;;;;;;19.33;5.45;;;8.20;99.90;;;7.55;100.00;101180.78;4202228;28;20490;-72
2023/12/30 03:50:46;;;;;;;14.05;4.97;;;8.20;99.90;;;7.59;100.00;101183.97;4209185;28;20031;-72
2023/12/30 03:52:49;;;;;;;8.27;4.38;;;8.20;99.90;;;7.63;100.00;101172.25;4205896;28;20032;-72
2023/12/30 03:54:51;;;;;;;11.55;4.43;;;8.30;99.90;;;7.64;100.00;101177.41;4201679;28;20035;-72
2023/12/30 03:56:54;;;;;;;14.45;5.80;;;8.30;99.90;;;7.62;100.00;101171.41;4205495;28;20057;-72
2023/12/30 03:58:56;;;;;;;18.35;5.57;;;8.30;99.90;;;7.65;100.00;101165.91;4200814;28;20019;-72
2023/12/30 04:00:57;;;;;;;18.70;5.82;;;8.30;99.90;;;7.68;100.00;101160.41;4213627;28;20020;-72
2023/12/30 04:02:58;;;;;;;25.17;5.72;;;8.40;99.90;;;7.76;100.00;101157.97;4202636;28;20054;-72
2023/12/30 04:04:59;;;;;;;12.25;5.35;;;8.40;99.90;;;7.86;100.00;101163.28;4205550;28;20028;-72
2023/12/30 04:07:00;;;;;;;16.23;5.85;;;8.50;99.90;;;7.89;100.00;101149.91;4209819;28;20506;-72
2023/12/30 04:09:01;;;;;;;33.85;7.10;;;8.50;99.90;;;7.96;100.00;101147.59;4201615;28;20027;-72
2023/12/30 04:11:01;;;;;;;44.80;8.25;;;8.60;99.90;;;8.00;100.00;101147.22;4214190;28;20016;-72
2023/12/30 04:13:03;;;;;;;33.42;6.35;;;8.60;99.90;;;8.03;100.00;101138.25;4218523;28;20043;-72
2023/12/30 04:15:05;;;;;;;23.20;6.50;;;8.70;99.90;;;8.09;100.00;101145.63;4218300;28;20151;-72
2023/12/30 04:17:06;;;;;;;44.30;7.70;;;8.70;99.90;;;8.13;100.00;101144.38;4218229;28;20028;-72
2023/12/30 04:19:06;;;;;;;34.22;8.02;;;8.80;99.90;;;8.14;100.00;101141.63;4218255;28;20051;-72
2023/12/30 04:21:07;;;;;;;30.83;6.50;;;8.80;99.90;;;8.18;100.00;101143.00;4215407;28;20031;-72
2023/12/30 04:23:08;;;;;;;14.75;5.50;;;8.80;99.90;;;8.22;100.00;101139.19;4193465;28;20469;-72
2023/12/30 04:25:09;;;;;;;16.83;5.90;;;8.90;99.90;;;8.24;100.00;101141.69;4201647;28;20059;-72
2023/12/30 04:27:10;;;;;;;12.15;5.43;;;8.90;99.90;;;8.28;100.00;101141.31;4201611;28;20024;-72
2023/12/30 04:29:11;;;;;;;25.52;6.78;;;8.90;99.90;;;8.31;100.00;101140.22;4201471;28;20041;-72
2023/12/30 04:31:12;;;;;;;28.63;6.80;;;8.90;99.90;;;8.32;100.00;101139.25;4212591;28;20013;-72
2023/12/30 04:33:13;;;;;;;18.20;6.28;;;9.00;99.90;;;8.38;100.00;101137.88;4208666;28;20103;-72
2023/12/30 04:35:14;;;;;;;23.73;5.97;;;9.00;99.90;;;8.38;100.00;101132.63;4201431;28;20463;-72
2023/12/30 04:37:14;;;;;;;26.63;6.90;;;9.00;99.90;;;8.43;100.00;101126.00;4201390;28;20070;-72
2023/12/30 04:39:15;;;;;;;33.10;7.03;;;9.00;99.90;;;8.47;100.00;101131.84;4206027;28;20426;-72
2023/12/30 04:41:16;;;;;;;21.27;5.75;;;9.10;99.90;;;8.47;100.00;101126.59;4202801;28;20031;-72
2023/12/30 04:43:17;;;;;;;23.85;5.55;;;9.10;99.90;;;8.52;100.00;101133.09;4205685;28;20020;-72
2023/12/30 04:45:18;;;;;;;21.70;5.30;;;9.10;99.90;;;8.56;100.00;101138.94;4201330;28;20489;-72
2023/12/30 04:47:21;;;;;;;41.58;7.47;;;9.10;99.90;;;8.56;100.00;101126.63;4205893;28;20028;-72
2023/12/30 04:49:22;;;;;;;34.85;6.88;;;9.10;99.90;;;8.60;100.00;101127.19;4210879;28;20024;-72
2023/12/30 04:51:23;;;;;;;45.42;8.32;;;9.20;99.90;;;8.58;100.00;101115.97;4216812;28;20034;-72
2023/12/30 04:53:24;;;;;;;59.58;8.38;;;9.20;99.90;;;8.58;100.00;101122.06;4202179;28;20035;-72
2023/12/30 04:55:25;;;;;;;75.80;8.25;;;9.20;99.90;;;8.61;100.00;101119.16;4205874;28;20024;-72
2023/12/30 04:57:25;;;;;;;51.53;7.60;;;9.20;99.90;;;8.60;100.00;101112.22;4201554;28;20040;-72
2023/12/30 04:59:27;;;;;;;37.25;6.40;;;9.20;99.90;;;8.64;100.00;101112.78;4212383;28;20039;-72
2023/12/30 05:01:31;;;;;;;23.52;5.25;;;9.30;99.90;;;8.66;100.00;101111.69;4203003;28;20028;-72
2023/12/30 05:03:31;;;;;;;31.75;6.05;;;9.20;99.90;;;8.66;100.00;101109.06;4207076;28;20012;-72
2023/12/30 05:05:32;;;;;;;23.92;5.75;;;9.30;99.90;;;8.68;100.00;101103.69;4233792;28;20031;-72
2023/12/30 05:07:33;;;;;;;37.83;6.20;;;9.30;99.90;;;8.66;100.00;101098.53;4233445;28;20573;-72
2023/12/30 05:09:35;;;;;;;18.75;4.82;;;9.30;99.90;;;8.70;100.00;101099.94;4216556;28;20107;-72
2023/12/30 05:11:36;;;;;;;49.70;6.88;;;9.30;99.90;;;8.71;100.00;101101.63;4216593;28;20111;-72
2023/12/30 05:13:37;;;;;;;37.85;5.68;;;9.30;99.90;;;8.73;100.00;101101.47;4208762;28;20421;-72
2023/12/30 05:15:38;;;;;;;16.65;4.90;;;9.30;99.90;;;8.75;100.00;101108.25;4199828;28;20094;-72
2023/12/30 05:17:38;;;;;;;21.83;4.80;;;9.30;99.90;;;8.79;100.00;101107.03;4215738;28;20032;-72
2023/12/30 05:19:39;;;;;;;16.13;5.65;;;9.40;99.90;;;8.85;100.00;101108.28;4216816;28;20016;-72
2023/12/30 05:21:40;;;;;;;29.60;6.85;;;9.40;99.90;;;8.83;100.00;101097.06;4217942;28;20024;-72
2023/12/30 05:23:43;;;;;;;13.32;5.13;;;9.40;99.90;;;8.90;100.00;101104.25;4208793;28;20084;-72
2023/12/30 05:25:43;;;;;;;16.35;4.82;;;9.50;99.90;;;8.95;100.00;101095.13;4202802;28;20111;-72
2023/12/30 05:27:44;;;;;;;15.95;4.95;;;9.50;99.90;;;9.01;100.00;101099.84;4204251;28;20411;-72
2023/12/30 05:29:45;;;;;;;19.52;6.20;;;9.60;99.90;;;9.02;100.00;101107.59;4207929;28;20028;-72
2023/12/30 05:31:46;;;;;;;24.92;5.65;;;9.60;99.90;;;9.07;100.00;101100.16;4210086;28;20020;-72
2023/12/30 05:33:47;;;;;;;15.50;5.60;;;9.60;99.90;;;9.13;100.00;101093.50;4206385;28;20033;-72
2023/12/30 05:35:48;;;;;;;13.73;4.45;;;9.70;99.90;;;9.15;100.00;101089.75;4206885;28;20035;-72
2023/12/30 05:37:50;;;;;;;17.60;4.82;;;9.70;99.90;;;9.19;100.00;101085.88;4203940;28;20028;-72
2023/12/30 05:39:51;;;;;;;16.65;5.45;;;9.80;99.90;;;9.21;100.00;101085.72;4202713;28;20020;-72
2023/12/30 05:41:52;;;;;;;19.42;6.10;;;9.80;99.90;;;9.24;100.00;101080.19;4216671;28;20027;-72
2023/12/30 05:43:53;;;;;;;19.55;4.88;;;9.80;99.90;;;9.26;100.00;101073.81;4219342;28;20024;-72
2023/12/30 05:45:54;;;;;;;20.85;4.65;;;9.80;99.90;;;9.29;100.00;101072.69;4220746;28;20061;-72
2023/12/30 05:47:55;;;;;;;20.23;5.30;;;9.90;99.90;;;9.33;100.00;101071.47;4209143;28;20032;-72
2023/12/30 05:49:56;;;;;;;14.77;4.22;;;9.90;99.90;;;9.36;100.00;101063.28;4204064;28;20024;-72
2023/12/30 05:51:57;;;;;;;26.30;5.13;;;9.90;99.90;;;9.36;100.00;101066.75;4207559;28;20024;-72
2023/12/30 05:53:57;;;;;;;25.27;5.15;;;9.90;99.90;;;9.45;100.00;101073.81;4203627;28;20039;-72
2023/12/30 05:55:59;;;;;;;21.77;4.47;;;10.00;99.90;;;9.46;100.00;101064.09;4212215;28;20538;-72
2023/12/30 05:57:59;;;;;;;21.38;4.82;;;10.00;99.90;;;9.47;100.00;101068.38;4208378;28;20016;-72
2023/12/30 06:00:00;;;;;;;16.58;4.50;;;10.00;99.90;;;9.49;100.00;101061.19;4204000;28;20024;-72
2023/12/30 06:02:01;;;;;;;20.77;4.88;;;10.10;99.90;;;9.55;100.00;101055.38;4205589;28;20102;-72
2023/12/30 06:04:02;;;;;;;22.35;4.70;;;10.10;99.90;;;9.55;100.00;101049.25;4213255;28;20020;-72
2023/12/30 06:06:03;;;;;;;24.02;4.47;;;10.10;99.90;;;9.58;100.00;101060.34;4219135;28;20109;-71
2023/12/30 06:08:05;;;;;;;22.63;4.97;;;10.10;99.90;;;9.59;100.00;101058.53;4216768;28;20029;-72
2023/12/30 06:10:07;;;;;;;14.85;4.35;;;10.20;99.90;;;9.60;100.00;101066.28;4202201;28;20028;-72
2023/12/30 06:12:09;;;;;;;14.00;4.03;;;10.10;99.90;;;9.60;100.00;101060.19;4210451;28;20035;-72
2023/12/30 06:14:09;;;;;;;16.35;4.40;;;10.20;99.90;;;9.62;100.00;101058.22;4219167;28;20059;-72
2023/12/30 06:16:10;;;;;;;20.63;5.90;;;10.20;99.90;;;9.65;100.00;101061.41;4220124;28;20479;-72
2023/12/30 06:18:11;;;;;;;26.00;5.40;;;10.20;99.90;;;9.69;100.00;101067.25;4213043;28;20020;-72
2023/12/30 06:20:12;;;;;;;24.65;5.38;;;10.20;99.90;;;9.69;100.00;101054.91;4203555;28;20036;-72
2023/12/30 06:22:13;;;;;;;28.75;6.10;;;10.30;99.90;;;9.72;100.00;101057.25;4219597;28;20074;-72
2023/12/30 06:24:14;;;;;;;18.50;4.97;;;10.30;99.90;;;9.76;100.00;101060.44;4217661;28;20087;-72
2023/12/30 06:26:15;;;;;;;19.80;4.90;;;10.30;99.90;;;9.76;100.00;101058.63;4203353;28;20032;-72
2023/12/30 06:28:16;;;;;;;26.40;5.57;;;10.30;99.90;;;9.77;100.00;101057.66;4211462;28;20024;-72
2023/12/30 06:30:17;;;;;;;28.05;6.47;;;10.30;99.90;;;9.76;100.00;101055.16;4206616;28;20020;-72
2023/12/30 06:32:18;;;;;;;24.90;5.43;;;10.40;99.90;;;9.79;100.00;101053.09;4217837;28;20032;-72
2023/12/30 06:34:18;;;;;;;24.30;4.32;;;10.30;99.90;;;9.80;100.00;101052.09;4201871;28;20028;-72
2023/12/30 06:36:21;;;;;;;20.58;4.82;;;10.30;99.90;;;9.76;100.00;101047.28;4219819;28;20120;-72
2023/12/30 06:38:22;;;;;;;24.30;5.10;;;10.40;99.90;;;9.84;100.00;101052.63;4206177;28;20052;-72
2023/12/30 06:40:23;;;;;;;16.58;4.82;;;10.40;99.90;;;9.85;100.00;101049.88;4202817;28;20047;-72
2023/12/30 06:42:24;;;;;;;17.75;4.80;;;10.40;99.90;;;9.87;100.00;101058.47;4210074;28;20021;-72
2023/12/30 06:44:25;;;;;;;21.33;4.68;;;10.40;99.90;;;9.87;100.00;101047.91;4201825;28;20031;-72
2023/12/30 06:46:26;;;;;;;21.08;5.45;;;10.40;99.90;;;9.86;100.00;101054.16;4213768;28;20024;-72
2023/12/30 06:48:27;;;;;;;24.45;4.32;;;10.40;99.90;;;9.88;100.00;101049.59;4217052;28;20070;-72
2023/12/30 06:50:28;;;;;;;15.75;3.83;;;10.40;99.90;;;9.93;100.00;101057.88;4201672;28;20028;-72
2023/12/30 06:52:29;;;;;;;22.65;4.30;;;10.50;99.90;;;9.93;100.00;101052.63;4212083;28;20035;-72
2023/12/30 06:54:30;;;;;;;21.23;4.82;;;10.50;99.90;;;9.92;100.00;101056.22;4202637;28;20381;-72
2023/12/30 06:56:30;;;;;;;22.80;5.05;;;10.50;99.90;;;9.88;100.00;101046.97;4202638;28;20439;-72
2023/12/30 06:58:31;;;;;;;18.30;5.15;;;10.50;99.90;;;9.79;100.00;101049.63;4202846;28;20025;-72
2023/12/30 07:00:32;;;;;;;19.73;4.70;;;10.40;99.90;;;9.65;100.00;101042.97;4202786;28;20032;-72
2023/12/30 07:02:34;;;;;;;13.93;4.07;;;10.30;99.90;;;9.57;100.00;101042.88;4213569;28;20020;-72
2023/12/30 07:04:34;;;;;;;20.38;3.60;;;10.20;99.90;;;9.43;100.00;101027.53;4217604;28;20024;-72
2023/12/30 07:06:35;;;;;;;14.45;3.08;;;10.20;99.90;;;9.45;100.00;101041.38;4206870;28;20031;-72
2023/12/30 07:08:36;;;;;;;23.73;3.63;;;10.10;99.90;;;9.38;100.00;101035.00;4210366;28;20028;-72
2023/12/30 07:10:37;;;;;;;11.95;2.80;;;10.10;99.90;;;9.40;100.00;101035.72;4202524;28;20029;-72
2023/12/30 07:12:38;;;;;;;18.10;3.55;;;10.00;99.90;;;9.38;100.00;101038.47;4213187;28;20028;-72
2023/12/30 07:14:38;;;;;;;22.52;3.30;;;10.00;99.90;;;9.39;100.00;101037.50;4202341;28;20028;-72
2023/12/30 07:16:39;;;;;;;17.60;3.42;;;10.00;99.90;;;9.44;100.00;101032.63;4208548;28;20047;-72
2023/12/30 07:18:40;;;;;;;14.00;2.80;;;10.00;99.90;;;9.49;100.00;101031.38;4202538;28;20055;-72
2023/12/30 07:20:41;;;;;;;15.60;2.50;;;10.00;99.90;;;9.52;100.00;101031.94;4202346;28;20082;-72
2023/12/30 07:22:42;;;;;;;20.63;2.92;;;10.10;99.90;;;9.61;100.00;101035.53;4210244;28;20017;-72
2023/12/30 07:24:43;;;;;;;14.73;3.30;;;10.10;99.90;;;9.57;100.00;101013.91;4202386;28;20025;-72
2023/12/30 07:26:44;;;;;;;19.90;3.55;;;10.20;99.90;;;9.70;100.00;101024.13;4202305;28;20058;-72
2023/12/30 07:28:45;;;;;;;12.38;3.63;;;10.20;99.90;;;9.72;100.00;101023.00;4202272;28;20032;-72
2023/12/30 07:30:45;;;;;;;11.18;2.80;;;10.30;99.90;;;9.71;100.00;101021.34;4230785;28;20036;-72
2023/12/30 07:32:46;;;;;;;13.13;3.15;;;10.30;99.90;;;9.72;100.00;101023.00;4217879;28;20095;-72
2023/12/30 07:34:47;;;;;;;20.75;3.63;;;10.30;99.90;;;9.66;100.00;101007.78;4211142;28;20031;-72
2023/12/30 07:36:48;;;;;;;17.48;3.42;;;10.30;99.90;;;9.75;100.00;101014.81;4202242;28;20381;-72
2023/12/30 07:38:49;;;;;;;21.05;3.95;;;10.30;99.90;;;9.80;100.00;101022.28;4217316;28;20392;-72
2023/12/30 07:40:49;;;;;;;18.60;3.38;;;10.40;99.90;;;9.82;100.00;101021.19;4200827;28;20051;-72
2023/12/30 07:42:50;;;;;;;15.57;2.78;;;10.40;99.90;;;9.83;100.00;101019.34;4220914;28;20024;-72
2023/12/30 07:44:53;;;;;;;18.38;3.13;;;10.40;99.90;;;9.83;100.00;101019.34;4200722;28;20103;-72
2023/12/30 07:46:54;;;;;;;27.88;3.63;;;10.40;99.90;;;9.86;100.00;101014.63;4201525;28;20040;-72
2023/12/30 07:48:55;;;;;;;20.20;3.17;;;10.40;99.90;;;9.84;100.00;101013.97;4202068;28;20028;-72
2023/12/30 07:50:56;;;;;;;15.10;3.42;;;10.40;99.90;;;9.83;100.00;101014.09;4210151;28;20026;-72
2023/12/30 07:52:56;;;;;;;23.25;4.55;;;10.40;99.90;;;9.81;100.00;101008.13;4201341;28;20052;-72
2023/12/30 07:54:57;;;;;;;16.02;4.25;;;10.40;99.90;;;9.88;100.00;101019.78;4213775;28;20079;-72
2023/12/30 07:56:58;;;;;;;25.05;4.75;;;10.40;99.90;;;9.90;100.00;101010.75;4200618;28;20029;-72
2023/12/30 07:58:59;;;;;;;15.60;3.30;;;10.50;99.90;;;9.89;100.00;101008.25;4192932;28;20530;-72
2023/12/30 08:01:00;;;;;;;23.30;3.42;;;10.50;99.90;;;9.91;100.00;101001.88;4218531;28;20491;-72
2023/12/30 08:03:01;;;;;;;20.60;3.58;;;10.50;99.90;;;9.91;100.00;101001.88;4217682;28;20081;-72
2023/12/30 08:05:02;;;;;;;12.60;3.50;;;10.50;99.90;;;9.96;100.00;101010.16;4212802;28;20036;-72
2023/12/30 08:07:03;;;;;;;28.65;4.70;;;10.50;99.90;;;9.97;100.00;101003.91;4210439;28;20028;-72
2023/12/30 08:09:04;;;;;;;19.73;4.78;;;10.50;99.90;;;10.02;100.00;100999.03;4201559;28;20039;-72
2023/12/30 08:11:05;;;;;;;25.05;5.25;;;10.60;99.90;;;10.05;100.00;100999.72;4201688;28;20526;-72
2023/12/30 08:13:05;;;;;;;26.42;5.68;;;10.60;99.90;;;10.06;100.00;101001.38;4216256;28;20036;-72
2023/12/30 08:15:08;;;;;;;17.65;5.13;;;10.60;99.90;;;10.09;100.00;100998.47;4217241;28;20051;-72
2023/12/30 08:17:08;;;;;;;22.08;5.40;;;10.60;99.90;;;10.07;100.00;100995.94;4218438;28;20043;-72
2023/12/30 08:19:09;;;;;;;27.10;6.50;;;10.60;99.90;;;10.05;100.00;100990.00;4218372;28;20028;-72
2023/12/30 08:21:10;;;;;;;19.38;4.90;;;10.60;99.90;;;10.00;100.00;100979.88;4213821;28;20027;-72